sensor_id;sensor_type;location;lat;lon;timestamp;P1;P2;P0
82291;PMS5003;71891;21.336;-157.724;2023-08-06T00:00:12;2;1;
82291;PMS5003;71891;21.336;-157.724;2023-08-06T00:02:38;0;0;
82291;PMS5003;71891;21.336;-157.724;2023-08-06T00:05:03;1;1;
82291;PMS5003;71891;21.336;-157.724;2023-08-06T00:07:29;1;1;
82291;PMS5003;71891;21.336;-157.724;2023-08-06T00:09:54;1;0;
82291;PMS5003;71891;21.336;-157.724;2023-08-06T00:12:20;1;1;
82291;PMS5003;71891;21.336;-157.724;2023-08-06T00:14:49;1;1;
82291;PMS5003;71891;21.336;-157.724;2023-08-06T00:17:11;0;0;
82291;PMS5003;71891;21.336;-157.724;2023-08-06T00:19:37;1;1;
82291;PMS5003;71891;21.336;-157.724;2023-08-06T00:22:02;1;1;
82291;PMS5003;71891;21.336;-157.724;2023-08-06T00:24:28;1;1;
82291;PMS5003;71891;21.336;-157.724;2023-08-06T00:26:53;1;1;
82291;PMS5003;71891;21.336;-157.724;2023-08-06T00:29:19;2;2;
82291;PMS5003;71891;21.336;-157.724;2023-08-06T00:31:44;1;1;
82291;PMS5003;71891;21.336;-157.724;2023-08-06T00:34:10;1;1;
82291;PMS5003;71891;21.336;-157.724;2023-08-06T00:36:35;1;1;
82291;PMS5003;71891;21.336;-157.724;2023-08-06T00:39:01;1;1;
82291;PMS5003;71891;21.336;-157.724;2023-08-06T00:41:27;1;1;
82291;PMS5003;71891;21.336;-157.724;2023-08-06T00:43:52;1;1;
82291;PMS5003;71891;21.336;-157.724;2023-08-06T00:46:18;1;0;
82291;PMS5003;71891;21.336;-157.724;2023-08-06T00:48:43;2;1;
82291;PMS5003;71891;21.336;-157.724;2023-08-06T00:51:09;1;1;
82291;PMS5003;71891;21.336;-157.724;2023-08-06T00:53:34;1;1;
82291;PMS5003;71891;21.336;-157.724;2023-08-06T00:56:00;2;2;
82291;PMS5003;71891;21.336;-157.724;2023-08-06T00:58:26;1;1;
82291;PMS5003;71891;21.336;-157.724;2023-08-06T01:05:42;1;1;
82291;PMS5003;71891;21.336;-157.724;2023-08-06T01:08:11;1;1;
82291;PMS5003;71891;21.336;-157.724;2023-08-06T01:10:35;1;1;
82291;PMS5003;71891;21.336;-157.724;2023-08-06T01:13:02;2;1;
82291;PMS5003;71891;21.336;-157.724;2023-08-06T01:15:27;1;1;
82291;PMS5003;71891;21.336;-157.724;2023-08-06T01:17:55;2;2;
82291;PMS5003;71891;21.336;-157.724;2023-08-06T01:20:16;1;1;
82291;PMS5003;71891;21.336;-157.724;2023-08-06T01:22:41;2;2;
82291;PMS5003;71891;21.336;-157.724;2023-08-06T01:25:07;1;1;
82291;PMS5003;71891;21.336;-157.724;2023-08-06T01:27:33;0;0;
82291;PMS5003;71891;21.336;-157.724;2023-08-06T01:30:02;0;0;
82291;PMS5003;71891;21.336;-157.724;2023-08-06T01:32:23;2;1;
82291;PMS5003;71891;21.336;-157.724;2023-08-06T01:34:49;0;0;
82291;PMS5003;71891;21.336;-157.724;2023-08-06T01:37:17;1;1;
82291;PMS5003;71891;21.336;-157.724;2023-08-06T01:39:40;1;1;
82291;PMS5003;71891;21.336;-157.724;2023-08-06T01:42:05;2;2;
82291;PMS5003;71891;21.336;-157.724;2023-08-06T01:44:31;2;2;
82291;PMS5003;71891;21.336;-157.724;2023-08-06T01:46:56;3;2;
82291;PMS5003;71891;21.336;-157.724;2023-08-06T01:49:22;1;1;
82291;PMS5003;71891;21.336;-157.724;2023-08-06T01:51:48;2;2;
82291;PMS5003;71891;21.336;-157.724;2023-08-06T01:54:13;2;2;
82291;PMS5003;71891;21.336;-157.724;2023-08-06T01:56:39;1;1;
82291;PMS5003;71891;21.336;-157.724;2023-08-06T01:59:04;1;1;
82291;PMS5003;71891;21.336;-157.724;2023-08-06T02:01:32;1;1;
82291;PMS5003;71891;21.336;-157.724;2023-08-06T02:03:55;1;1;
82291;PMS5003;71891;21.336;-157.724;2023-08-06T02:06:21;2;2;
82291;PMS5003;71891;21.336;-157.724;2023-08-06T02:08:46;2;2;
82291;PMS5003;71891;21.336;-157.724;2023-08-06T02:11:18;0;0;
82291;PMS5003;71891;21.336;-157.724;2023-08-06T02:13:38;1;1;
82291;PMS5003;71891;21.336;-157.724;2023-08-06T02:16:03;1;1;
82291;PMS5003;71891;21.336;-157.724;2023-08-06T02:18:29;1;1;
82291;PMS5003;71891;21.336;-157.724;2023-08-06T02:20:55;2;2;
82291;PMS5003;71891;21.336;-157.724;2023-08-06T02:23:26;2;2;
82291;PMS5003;71891;21.336;-157.724;2023-08-06T02:25:45;1;1;
82291;PMS5003;71891;21.336;-157.724;2023-08-06T02:28:14;1;1;
82291;PMS5003;71891;21.336;-157.724;2023-08-06T02:30:36;1;1;
82291;PMS5003;71891;21.336;-157.724;2023-08-06T02:33:02;1;1;
82291;PMS5003;71891;21.336;-157.724;2023-08-06T02:35:28;2;1;
82291;PMS5003;71891;21.336;-157.724;2023-08-06T02:37:53;2;2;
82291;PMS5003;71891;21.336;-157.724;2023-08-06T02:40:19;2;2;
82291;PMS5003;71891;21.336;-157.724;2023-08-06T02:42:44;1;1;
82291;PMS5003;71891;21.336;-157.724;2023-08-06T02:45:10;2;2;
82291;PMS5003;71891;21.336;-157.724;2023-08-06T02:47:38;2;1;
82291;PMS5003;71891;21.336;-157.724;2023-08-06T02:50:02;0;0;
82291;PMS5003;71891;21.336;-157.724;2023-08-06T02:52:27;1;1;
82291;PMS5003;71891;21.336;-157.724;2023-08-06T02:54:52;2;2;
82291;PMS5003;71891;21.336;-157.724;2023-08-06T02:57:30;1;1;
82291;PMS5003;71891;21.336;-157.724;2023-08-06T02:59:43;1;1;
82291;PMS5003;71891;21.336;-157.724;2023-08-06T03:02:09;2;1;
82291;PMS5003;71891;21.336;-157.724;2023-08-06T03:04:34;1;1;
82291;PMS5003;71891;21.336;-157.724;2023-08-06T03:07:00;1;1;
82291;PMS5003;71891;21.336;-157.724;2023-08-06T03:09:26;0;0;
82291;PMS5003;71891;21.336;-157.724;2023-08-06T03:11:51;2;1;
82291;PMS5003;71891;21.336;-157.724;2023-08-06T03:14:16;0;0;
82291;PMS5003;71891;21.336;-157.724;2023-08-06T03:16:42;2;1;
82291;PMS5003;71891;21.336;-157.724;2023-08-06T03:19:08;2;1;
82291;PMS5003;71891;21.336;-157.724;2023-08-06T03:21:33;2;2;
82291;PMS5003;71891;21.336;-157.724;2023-08-06T03:23:59;2;2;
82291;PMS5003;71891;21.336;-157.724;2023-08-06T03:26:25;1;1;
82291;PMS5003;71891;21.336;-157.724;2023-08-06T03:28:50;1;1;
82291;PMS5003;71891;21.336;-157.724;2023-08-06T03:31:21;2;2;
82291;PMS5003;71891;21.336;-157.724;2023-08-06T03:33:41;1;1;
82291;PMS5003;71891;21.336;-157.724;2023-08-06T03:36:07;2;2;
82291;PMS5003;71891;21.336;-157.724;2023-08-06T03:38:32;2;2;
82291;PMS5003;71891;21.336;-157.724;2023-08-06T03:40:58;0;0;
82291;PMS5003;71891;21.336;-157.724;2023-08-06T03:43:23;1;1;
82291;PMS5003;71891;21.336;-157.724;2023-08-06T03:45:49;1;1;
82291;PMS5003;71891;21.336;-157.724;2023-08-06T03:48:14;3;3;
82291;PMS5003;71891;21.336;-157.724;2023-08-06T03:50:40;3;2;
82291;PMS5003;71891;21.336;-157.724;2023-08-06T03:53:05;1;1;
82291;PMS5003;71891;21.336;-157.724;2023-08-06T03:55:31;1;1;
82291;PMS5003;71891;21.336;-157.724;2023-08-06T03:57:57;3;2;
82291;PMS5003;71891;21.336;-157.724;2023-08-06T04:00:22;2;2;
82291;PMS5003;71891;21.336;-157.724;2023-08-06T04:02:48;1;1;
82291;PMS5003;71891;21.336;-157.724;2023-08-06T04:05:13;1;1;
82291;PMS5003;71891;21.336;-157.724;2023-08-06T04:07:39;2;2;
82291;PMS5003;71891;21.336;-157.724;2023-08-06T04:10:06;2;2;
82291;PMS5003;71891;21.336;-157.724;2023-08-06T04:12:36;1;1;
82291;PMS5003;71891;21.336;-157.724;2023-08-06T04:14:57;1;1;
82291;PMS5003;71891;21.336;-157.724;2023-08-06T04:17:21;1;1;
82291;PMS5003;71891;21.336;-157.724;2023-08-06T04:19:48;2;2;
82291;PMS5003;71891;21.336;-157.724;2023-08-06T04:22:13;2;2;
82291;PMS5003;71891;21.336;-157.724;2023-08-06T04:24:38;1;1;
82291;PMS5003;71891;21.336;-157.724;2023-08-06T04:27:04;1;1;
82291;PMS5003;71891;21.336;-157.724;2023-08-06T04:29:29;1;1;
82291;PMS5003;71891;21.336;-157.724;2023-08-06T04:31:55;2;2;
82291;PMS5003;71891;21.336;-157.724;2023-08-06T04:34:21;2;2;
82291;PMS5003;71891;21.336;-157.724;2023-08-06T04:36:46;1;1;
82291;PMS5003;71891;21.336;-157.724;2023-08-06T04:39:12;2;1;
82291;PMS5003;71891;21.336;-157.724;2023-08-06T04:41:37;1;1;
82291;PMS5003;71891;21.336;-157.724;2023-08-06T04:44:03;1;1;
82291;PMS5003;71891;21.336;-157.724;2023-08-06T04:46:28;1;1;
82291;PMS5003;71891;21.336;-157.724;2023-08-06T04:48:54;1;1;
82291;PMS5003;71891;21.336;-157.724;2023-08-06T04:51:20;1;1;
82291;PMS5003;71891;21.336;-157.724;2023-08-06T04:53:45;1;1;
82291;PMS5003;71891;21.336;-157.724;2023-08-06T04:56:11;3;1;
82291;PMS5003;71891;21.336;-157.724;2023-08-06T04:58:37;2;1;
82291;PMS5003;71891;21.336;-157.724;2023-08-06T05:01:03;0;0;
82291;PMS5003;71891;21.336;-157.724;2023-08-06T05:03:28;2;2;
82291;PMS5003;71891;21.336;-157.724;2023-08-06T05:05:53;0;0;
82291;PMS5003;71891;21.336;-157.724;2023-08-06T05:08:19;2;2;
82291;PMS5003;71891;21.336;-157.724;2023-08-06T05:10:44;1;1;
82291;PMS5003;71891;21.336;-157.724;2023-08-06T05:13:10;2;1;
82291;PMS5003;71891;21.336;-157.724;2023-08-06T05:15:36;2;1;
82291;PMS5003;71891;21.336;-157.724;2023-08-06T05:18:02;2;2;
82291;PMS5003;71891;21.336;-157.724;2023-08-06T05:20:27;1;1;
82291;PMS5003;71891;21.336;-157.724;2023-08-06T05:22:53;3;3;
82291;PMS5003;71891;21.336;-157.724;2023-08-06T05:25:18;0;0;
82291;PMS5003;71891;21.336;-157.724;2023-08-06T05:27:44;1;1;
82291;PMS5003;71891;21.336;-157.724;2023-08-06T05:30:11;1;1;
82291;PMS5003;71891;21.336;-157.724;2023-08-06T05:32:37;1;1;
82291;PMS5003;71891;21.336;-157.724;2023-08-06T05:35:01;1;1;
82291;PMS5003;71891;21.336;-157.724;2023-08-06T05:37:27;2;2;
82291;PMS5003;71891;21.336;-157.724;2023-08-06T05:39:53;0;0;
82291;PMS5003;71891;21.336;-157.724;2023-08-06T05:42:17;2;1;
82291;PMS5003;71891;21.336;-157.724;2023-08-06T05:44:43;3;2;
82291;PMS5003;71891;21.336;-157.724;2023-08-06T05:47:09;3;3;
82291;PMS5003;71891;21.336;-157.724;2023-08-06T05:49:34;3;2;
82291;PMS5003;71891;21.336;-157.724;2023-08-06T05:52:00;1;1;
82291;PMS5003;71891;21.336;-157.724;2023-08-06T05:54:26;1;1;
82291;PMS5003;71891;21.336;-157.724;2023-08-06T05:56:51;2;2;
82291;PMS5003;71891;21.336;-157.724;2023-08-06T05:59:17;1;0;
82291;PMS5003;71891;21.336;-157.724;2023-08-06T06:01:43;1;1;
82291;PMS5003;71891;21.336;-157.724;2023-08-06T06:04:08;1;1;
82291;PMS5003;71891;21.336;-157.724;2023-08-06T06:06:34;1;1;
82291;PMS5003;71891;21.336;-157.724;2023-08-06T06:08:59;1;1;
82291;PMS5003;71891;21.336;-157.724;2023-08-06T06:11:25;2;1;
82291;PMS5003;71891;21.336;-157.724;2023-08-06T06:13:51;3;2;
82291;PMS5003;71891;21.336;-157.724;2023-08-06T06:16:16;2;2;
82291;PMS5003;71891;21.336;-157.724;2023-08-06T06:18:42;2;2;
82291;PMS5003;71891;21.336;-157.724;2023-08-06T06:21:09;1;1;
82291;PMS5003;71891;21.336;-157.724;2023-08-06T06:23:33;1;1;
82291;PMS5003;71891;21.336;-157.724;2023-08-06T06:25:59;0;0;
82291;PMS5003;71891;21.336;-157.724;2023-08-06T06:28:24;1;1;
82291;PMS5003;71891;21.336;-157.724;2023-08-06T06:30:50;0;0;
82291;PMS5003;71891;21.336;-157.724;2023-08-06T06:33:15;1;1;
82291;PMS5003;71891;21.336;-157.724;2023-08-06T06:35:41;2;1;
82291;PMS5003;71891;21.336;-157.724;2023-08-06T06:38:07;3;2;
82291;PMS5003;71891;21.336;-157.724;2023-08-06T06:40:32;2;1;
82291;PMS5003;71891;21.336;-157.724;2023-08-06T06:42:58;2;2;
82291;PMS5003;71891;21.336;-157.724;2023-08-06T06:45:24;0;0;
82291;PMS5003;71891;21.336;-157.724;2023-08-06T06:47:50;2;2;
82291;PMS5003;71891;21.336;-157.724;2023-08-06T06:50:15;0;0;
82291;PMS5003;71891;21.336;-157.724;2023-08-06T06:52:41;0;0;
82291;PMS5003;71891;21.336;-157.724;2023-08-06T06:55:06;2;2;
82291;PMS5003;71891;21.336;-157.724;2023-08-06T06:57:32;2;1;
82291;PMS5003;71891;21.336;-157.724;2023-08-06T06:59:57;2;2;
82291;PMS5003;71891;21.336;-157.724;2023-08-06T07:02:23;3;2;
82291;PMS5003;71891;21.336;-157.724;2023-08-06T07:04:49;2;2;
82291;PMS5003;71891;21.336;-157.724;2023-08-06T07:07:14;1;1;
82291;PMS5003;71891;21.336;-157.724;2023-08-06T07:09:40;3;2;
82291;PMS5003;71891;21.336;-157.724;2023-08-06T07:12:06;1;1;
82291;PMS5003;71891;21.336;-157.724;2023-08-06T07:14:32;1;1;
82291;PMS5003;71891;21.336;-157.724;2023-08-06T07:16:56;1;1;
82291;PMS5003;71891;21.336;-157.724;2023-08-06T07:19:23;1;1;
82291;PMS5003;71891;21.336;-157.724;2023-08-06T07:21:48;3;2;
82291;PMS5003;71891;21.336;-157.724;2023-08-06T07:24:18;2;2;
82291;PMS5003;71891;21.336;-157.724;2023-08-06T07:26:39;0;0;
82291;PMS5003;71891;21.336;-157.724;2023-08-06T07:29:06;2;2;
82291;PMS5003;71891;21.336;-157.724;2023-08-06T07:31:32;1;1;
82291;PMS5003;71891;21.336;-157.724;2023-08-06T07:33:57;1;1;
82291;PMS5003;71891;21.336;-157.724;2023-08-06T07:36:21;1;1;
82291;PMS5003;71891;21.336;-157.724;2023-08-06T07:38:47;2;1;
82291;PMS5003;71891;21.336;-157.724;2023-08-06T07:41:13;1;1;
82291;PMS5003;71891;21.336;-157.724;2023-08-06T07:43:38;3;1;
82291;PMS5003;71891;21.336;-157.724;2023-08-06T07:46:04;2;2;
82291;PMS5003;71891;21.336;-157.724;2023-08-06T07:48:30;1;1;
82291;PMS5003;71891;21.336;-157.724;2023-08-06T07:51:00;1;1;
82291;PMS5003;71891;21.336;-157.724;2023-08-06T07:53:22;2;2;
82291;PMS5003;71891;21.336;-157.724;2023-08-06T07:55:48;1;1;
82291;PMS5003;71891;21.336;-157.724;2023-08-06T07:58:12;2;2;
82291;PMS5003;71891;21.336;-157.724;2023-08-06T08:00:38;1;1;
82291;PMS5003;71891;21.336;-157.724;2023-08-06T08:03:03;3;1;
82291;PMS5003;71891;21.336;-157.724;2023-08-06T08:05:29;2;1;
82291;PMS5003;71891;21.336;-157.724;2023-08-06T08:07:54;2;2;
82291;PMS5003;71891;21.336;-157.724;2023-08-06T08:10:20;2;1;
82291;PMS5003;71891;21.336;-157.724;2023-08-06T08:12:46;0;0;
82291;PMS5003;71891;21.336;-157.724;2023-08-06T08:15:11;1;1;
82291;PMS5003;71891;21.336;-157.724;2023-08-06T08:17:38;3;2;
82291;PMS5003;71891;21.336;-157.724;2023-08-06T08:20:03;0;0;
82291;PMS5003;71891;21.336;-157.724;2023-08-06T08:22:29;0;0;
82291;PMS5003;71891;21.336;-157.724;2023-08-06T08:24:54;1;1;
82291;PMS5003;71891;21.336;-157.724;2023-08-06T08:27:19;4;4;
82291;PMS5003;71891;21.336;-157.724;2023-08-06T08:29:46;8;8;
82291;PMS5003;71891;21.336;-157.724;2023-08-06T08:32:11;13;12;
82291;PMS5003;71891;21.336;-157.724;2023-08-06T08:34:37;18;16;
82291;PMS5003;71891;21.336;-157.724;2023-08-06T08:37:02;20;19;
82291;PMS5003;71891;21.336;-157.724;2023-08-06T08:39:27;22;22;
82291;PMS5003;71891;21.336;-157.724;2023-08-06T08:41:53;20;19;
82291;PMS5003;71891;21.336;-157.724;2023-08-06T08:44:18;18;17;
82291;PMS5003;71891;21.336;-157.724;2023-08-06T08:46:43;18;17;
82291;PMS5003;71891;21.336;-157.724;2023-08-06T08:49:09;18;16;
82291;PMS5003;71891;21.336;-157.724;2023-08-06T08:51:34;13;11;
82291;PMS5003;71891;21.336;-157.724;2023-08-06T08:54:00;12;11;
82291;PMS5003;71891;21.336;-157.724;2023-08-06T08:56:27;9;9;
82291;PMS5003;71891;21.336;-157.724;2023-08-06T08:58:51;7;7;
82291;PMS5003;71891;21.336;-157.724;2023-08-06T09:01:17;6;6;
82291;PMS5003;71891;21.336;-157.724;2023-08-06T09:03:43;4;3;
82291;PMS5003;71891;21.336;-157.724;2023-08-06T09:06:09;4;4;
82291;PMS5003;71891;21.336;-157.724;2023-08-06T09:08:36;3;3;
82291;PMS5003;71891;21.336;-157.724;2023-08-06T09:11:00;4;3;
82291;PMS5003;71891;21.336;-157.724;2023-08-06T09:13:26;3;2;
82291;PMS5003;71891;21.336;-157.724;2023-08-06T09:15:51;2;2;
82291;PMS5003;71891;21.336;-157.724;2023-08-06T09:18:25;2;2;
82291;PMS5003;71891;21.336;-157.724;2023-08-06T09:20:42;1;1;
82291;PMS5003;71891;21.336;-157.724;2023-08-06T09:23:08;2;1;
82291;PMS5003;71891;21.336;-157.724;2023-08-06T09:25:34;2;2;
82291;PMS5003;71891;21.336;-157.724;2023-08-06T09:27:59;1;1;
82291;PMS5003;71891;21.336;-157.724;2023-08-06T09:30:30;2;2;
82291;PMS5003;71891;21.336;-157.724;2023-08-06T09:32:51;0;0;
82291;PMS5003;71891;21.336;-157.724;2023-08-06T09:35:16;2;2;
82291;PMS5003;71891;21.336;-157.724;2023-08-06T09:37:42;2;2;
82291;PMS5003;71891;21.336;-157.724;2023-08-06T09:42:35;1;1;
82291;PMS5003;71891;21.336;-157.724;2023-08-06T09:47:25;3;2;
82291;PMS5003;71891;21.336;-157.724;2023-08-06T09:49:51;1;1;
82291;PMS5003;71891;21.336;-157.724;2023-08-06T09:52:16;0;0;
82291;PMS5003;71891;21.336;-157.724;2023-08-06T09:54:41;2;1;
82291;PMS5003;71891;21.336;-157.724;2023-08-06T09:57:10;2;2;
82291;PMS5003;71891;21.336;-157.724;2023-08-06T09:59:33;2;2;
82291;PMS5003;71891;21.336;-157.724;2023-08-06T10:02:04;4;2;
82291;PMS5003;71891;21.336;-157.724;2023-08-06T10:04:24;4;3;
82291;PMS5003;71891;21.336;-157.724;2023-08-06T10:06:50;2;2;
82291;PMS5003;71891;21.336;-157.724;2023-08-06T10:09:16;2;2;
82291;PMS5003;71891;21.336;-157.724;2023-08-06T10:11:41;4;3;
82291;PMS5003;71891;21.336;-157.724;2023-08-06T10:14:08;3;3;
82291;PMS5003;71891;21.336;-157.724;2023-08-06T10:16:32;1;1;
82291;PMS5003;71891;21.336;-157.724;2023-08-06T10:18:58;2;2;
82291;PMS5003;71891;21.336;-157.724;2023-08-06T10:21:24;3;3;
82291;PMS5003;71891;21.336;-157.724;2023-08-06T10:23:53;2;2;
82291;PMS5003;71891;21.336;-157.724;2023-08-06T10:26:16;1;1;
82291;PMS5003;71891;21.336;-157.724;2023-08-06T10:28:41;4;4;
82291;PMS5003;71891;21.336;-157.724;2023-08-06T10:31:06;3;3;
82291;PMS5003;71891;21.336;-157.724;2023-08-06T10:33:40;3;2;
82291;PMS5003;71891;21.336;-157.724;2023-08-06T10:36:01;2;1;
82291;PMS5003;71891;21.336;-157.724;2023-08-06T10:38:25;2;1;
82291;PMS5003;71891;21.336;-157.724;2023-08-06T10:40:49;2;2;
82291;PMS5003;71891;21.336;-157.724;2023-08-06T10:45:41;1;1;
82291;PMS5003;71891;21.336;-157.724;2023-08-06T10:48:06;2;2;
82291;PMS5003;71891;21.336;-157.724;2023-08-06T10:50:31;3;2;
82291;PMS5003;71891;21.336;-157.724;2023-08-06T10:52:57;2;2;
82291;PMS5003;71891;21.336;-157.724;2023-08-06T10:55:23;3;1;
82291;PMS5003;71891;21.336;-157.724;2023-08-06T10:57:48;4;2;
82291;PMS5003;71891;21.336;-157.724;2023-08-06T11:00:14;2;2;
82291;PMS5003;71891;21.336;-157.724;2023-08-06T11:02:40;2;1;
82291;PMS5003;71891;21.336;-157.724;2023-08-06T11:05:06;1;1;
82291;PMS5003;71891;21.336;-157.724;2023-08-06T11:07:31;2;2;
82291;PMS5003;71891;21.336;-157.724;2023-08-06T11:10:01;3;3;
82291;PMS5003;71891;21.336;-157.724;2023-08-06T11:12:22;3;3;
82291;PMS5003;71891;21.336;-157.724;2023-08-06T11:14:50;1;1;
82291;PMS5003;71891;21.336;-157.724;2023-08-06T11:17:14;2;2;
82291;PMS5003;71891;21.336;-157.724;2023-08-06T11:19:41;2;2;
82291;PMS5003;71891;21.336;-157.724;2023-08-06T11:22:05;2;2;
82291;PMS5003;71891;21.336;-157.724;2023-08-06T11:24:31;2;1;
82291;PMS5003;71891;21.336;-157.724;2023-08-06T11:26:56;0;0;
82291;PMS5003;71891;21.336;-157.724;2023-08-06T11:29:22;1;1;
82291;PMS5003;71891;21.336;-157.724;2023-08-06T11:31:47;2;1;
82291;PMS5003;71891;21.336;-157.724;2023-08-06T11:34:13;2;2;
82291;PMS5003;71891;21.336;-157.724;2023-08-06T11:36:40;3;2;
82291;PMS5003;71891;21.336;-157.724;2023-08-06T11:39:04;2;2;
82291;PMS5003;71891;21.336;-157.724;2023-08-06T11:41:30;3;2;
82291;PMS5003;71891;21.336;-157.724;2023-08-06T11:43:56;0;0;
82291;PMS5003;71891;21.336;-157.724;2023-08-06T11:46:21;2;2;
82291;PMS5003;71891;21.336;-157.724;2023-08-06T11:48:51;2;1;
82291;PMS5003;71891;21.336;-157.724;2023-08-06T11:51:13;2;2;
82291;PMS5003;71891;21.336;-157.724;2023-08-06T11:53:38;2;2;
82291;PMS5003;71891;21.336;-157.724;2023-08-06T11:56:04;3;2;
82291;PMS5003;71891;21.336;-157.724;2023-08-06T11:58:30;3;2;
82291;PMS5003;71891;21.336;-157.724;2023-08-06T12:00:55;1;1;
82291;PMS5003;71891;21.336;-157.724;2023-08-06T12:03:21;2;2;
82291;PMS5003;71891;21.336;-157.724;2023-08-06T12:05:47;2;2;
82291;PMS5003;71891;21.336;-157.724;2023-08-06T12:08:12;2;2;
82291;PMS5003;71891;21.336;-157.724;2023-08-06T12:10:38;2;2;
82291;PMS5003;71891;21.336;-157.724;2023-08-06T12:13:04;2;2;
82291;PMS5003;71891;21.336;-157.724;2023-08-06T12:15:29;2;2;
82291;PMS5003;71891;21.336;-157.724;2023-08-06T12:17:55;2;2;
82291;PMS5003;71891;21.336;-157.724;2023-08-06T12:20:21;2;2;
82291;PMS5003;71891;21.336;-157.724;2023-08-06T12:22:46;3;3;
82291;PMS5003;71891;21.336;-157.724;2023-08-06T12:25:12;3;2;
82291;PMS5003;71891;21.336;-157.724;2023-08-06T12:27:38;1;1;
82291;PMS5003;71891;21.336;-157.724;2023-08-06T12:30:04;2;2;
82291;PMS5003;71891;21.336;-157.724;2023-08-06T12:32:29;1;1;
82291;PMS5003;71891;21.336;-157.724;2023-08-06T12:34:55;2;2;
82291;PMS5003;71891;21.336;-157.724;2023-08-06T12:37:20;2;2;
82291;PMS5003;71891;21.336;-157.724;2023-08-06T12:39:46;1;1;
82291;PMS5003;71891;21.336;-157.724;2023-08-06T12:42:12;2;2;
82291;PMS5003;71891;21.336;-157.724;2023-08-06T12:44:37;3;2;
82291;PMS5003;71891;21.336;-157.724;2023-08-06T12:47:03;3;3;
82291;PMS5003;71891;21.336;-157.724;2023-08-06T12:49:29;2;2;
82291;PMS5003;71891;21.336;-157.724;2023-08-06T12:51:54;2;2;
82291;PMS5003;71891;21.336;-157.724;2023-08-06T12:54:20;2;0;
82291;PMS5003;71891;21.336;-157.724;2023-08-06T12:56:46;2;2;
82291;PMS5003;71891;21.336;-157.724;2023-08-06T12:59:11;2;2;
82291;PMS5003;71891;21.336;-157.724;2023-08-06T13:01:37;1;1;
82291;PMS5003;71891;21.336;-157.724;2023-08-06T13:04:03;2;2;
82291;PMS5003;71891;21.336;-157.724;2023-08-06T13:06:28;3;3;
82291;PMS5003;71891;21.336;-157.724;2023-08-06T13:08:54;2;2;
82291;PMS5003;71891;21.336;-157.724;2023-08-06T13:11:20;2;2;
82291;PMS5003;71891;21.336;-157.724;2023-08-06T13:13:45;2;2;
82291;PMS5003;71891;21.336;-157.724;2023-08-06T13:16:11;3;2;
82291;PMS5003;71891;21.336;-157.724;2023-08-06T13:18:37;3;2;
82291;PMS5003;71891;21.336;-157.724;2023-08-06T13:21:02;3;3;
82291;PMS5003;71891;21.336;-157.724;2023-08-06T13:23:28;3;2;
82291;PMS5003;71891;21.336;-157.724;2023-08-06T13:25:54;1;1;
82291;PMS5003;71891;21.336;-157.724;2023-08-06T13:28:19;2;2;
82291;PMS5003;71891;21.336;-157.724;2023-08-06T13:30:45;2;2;
82291;PMS5003;71891;21.336;-157.724;2023-08-06T13:33:11;2;2;
82291;PMS5003;71891;21.336;-157.724;2023-08-06T13:35:36;3;3;
82291;PMS5003;71891;21.336;-157.724;2023-08-06T13:38:02;4;2;
82291;PMS5003;71891;21.336;-157.724;2023-08-06T13:40:28;2;2;
82291;PMS5003;71891;21.336;-157.724;2023-08-06T13:42:53;2;2;
82291;PMS5003;71891;21.336;-157.724;2023-08-06T13:45:19;2;1;
82291;PMS5003;71891;21.336;-157.724;2023-08-06T13:47:44;3;3;
82291;PMS5003;71891;21.336;-157.724;2023-08-06T13:50:10;2;2;
82291;PMS5003;71891;21.336;-157.724;2023-08-06T13:52:36;2;2;
82291;PMS5003;71891;21.336;-157.724;2023-08-06T13:55:01;2;2;
82291;PMS5003;71891;21.336;-157.724;2023-08-06T13:57:27;0;0;
82291;PMS5003;71891;21.336;-157.724;2023-08-06T13:59:52;2;2;
82291;PMS5003;71891;21.336;-157.724;2023-08-06T14:02:18;3;3;
82291;PMS5003;71891;21.336;-157.724;2023-08-06T14:04:44;2;2;
82291;PMS5003;71891;21.336;-157.724;2023-08-06T14:07:09;2;2;
82291;PMS5003;71891;21.336;-157.724;2023-08-06T14:09:35;2;2;
82291;PMS5003;71891;21.336;-157.724;2023-08-06T14:12:01;3;2;
82291;PMS5003;71891;21.336;-157.724;2023-08-06T14:14:27;1;1;
82291;PMS5003;71891;21.336;-157.724;2023-08-06T14:16:52;2;2;
82291;PMS5003;71891;21.336;-157.724;2023-08-06T14:19:17;4;4;
82291;PMS5003;71891;21.336;-157.724;2023-08-06T14:21:43;3;3;
82291;PMS5003;71891;21.336;-157.724;2023-08-06T14:24:10;3;3;
82291;PMS5003;71891;21.336;-157.724;2023-08-06T14:26:34;3;2;
82291;PMS5003;71891;21.336;-157.724;2023-08-06T14:29:00;2;2;
82291;PMS5003;71891;21.336;-157.724;2023-08-06T14:31:26;2;2;
82291;PMS5003;71891;21.336;-157.724;2023-08-06T14:33:51;4;3;
82291;PMS5003;71891;21.336;-157.724;2023-08-06T14:36:17;3;3;
82291;PMS5003;71891;21.336;-157.724;2023-08-06T14:38:43;4;4;
82291;PMS5003;71891;21.336;-157.724;2023-08-06T14:41:08;4;3;
82291;PMS5003;71891;21.336;-157.724;2023-08-06T14:43:34;3;3;
82291;PMS5003;71891;21.336;-157.724;2023-08-06T14:46:00;4;4;
82291;PMS5003;71891;21.336;-157.724;2023-08-06T14:48:26;3;3;
82291;PMS5003;71891;21.336;-157.724;2023-08-06T14:50:51;4;3;
82291;PMS5003;71891;21.336;-157.724;2023-08-06T14:53:17;2;2;
82291;PMS5003;71891;21.336;-157.724;2023-08-06T14:55:42;3;3;
82291;PMS5003;71891;21.336;-157.724;2023-08-06T14:58:08;2;2;
82291;PMS5003;71891;21.336;-157.724;2023-08-06T15:00:34;3;3;
82291;PMS5003;71891;21.336;-157.724;2023-08-06T15:02:59;3;3;
82291;PMS5003;71891;21.336;-157.724;2023-08-06T15:05:25;3;3;
82291;PMS5003;71891;21.336;-157.724;2023-08-06T15:07:52;3;3;
82291;PMS5003;71891;21.336;-157.724;2023-08-06T15:10:17;3;3;
82291;PMS5003;71891;21.336;-157.724;2023-08-06T15:12:42;6;5;
82291;PMS5003;71891;21.336;-157.724;2023-08-06T15:15:08;4;4;
82291;PMS5003;71891;21.336;-157.724;2023-08-06T15:17:33;3;3;
82291;PMS5003;71891;21.336;-157.724;2023-08-06T15:19:59;3;3;
82291;PMS5003;71891;21.336;-157.724;2023-08-06T15:22:26;2;2;
82291;PMS5003;71891;21.336;-157.724;2023-08-06T15:24:51;3;3;
82291;PMS5003;71891;21.336;-157.724;2023-08-06T15:27:16;3;2;
82291;PMS5003;71891;21.336;-157.724;2023-08-06T15:29:42;3;3;
82291;PMS5003;71891;21.336;-157.724;2023-08-06T15:32:08;4;3;
82291;PMS5003;71891;21.336;-157.724;2023-08-06T15:34:34;5;4;
82291;PMS5003;71891;21.336;-157.724;2023-08-06T15:36:59;1;1;
82291;PMS5003;71891;21.336;-157.724;2023-08-06T15:39:25;4;3;
82291;PMS5003;71891;21.336;-157.724;2023-08-06T15:41:50;3;3;
82291;PMS5003;71891;21.336;-157.724;2023-08-06T15:44:16;3;3;
82291;PMS5003;71891;21.336;-157.724;2023-08-06T15:46:42;4;4;
82291;PMS5003;71891;21.336;-157.724;2023-08-06T15:49:07;3;2;
82291;PMS5003;71891;21.336;-157.724;2023-08-06T15:51:33;5;4;
82291;PMS5003;71891;21.336;-157.724;2023-08-06T15:53:59;3;2;
82291;PMS5003;71891;21.336;-157.724;2023-08-06T15:56:25;2;2;
82291;PMS5003;71891;21.336;-157.724;2023-08-06T15:58:50;5;4;
82291;PMS5003;71891;21.336;-157.724;2023-08-06T16:01:16;3;3;